Accueil
METAR-TAF:

METAR-TAF

Aéroports :

Gilze-Rijen, Pays-Bas

latitude: 51-34N, longitude: 004-56E, altitude: 15 m

Observation

Le bulletin a été fait il y a 24 minutes, à 11:25 UTC
Vent 6 kt de est, variant entre nord et sud-est
Température 5°C
Humidité 81%
Pression 1016 hPa
Visibilité: 9000 m
Quelques nuages à une hauteur de 4900 ft
Ciel couvert à une hauteur de 10000 ft
Nuages fragmentés à une hauteur de 4000 ft

METAR: EHGR 211125Z AUTO 09006KT 360V140 9999 FEW049 OVC100 05/02 Q1016 BLU 10006KT 9000 BKN040

Heure: 12:49 (11:49 UTC)

Prévision

Le bulletin a été fait il y a 2 heures et 19 minutes, à 09:30 UTC
Prévision valable du 21 à 10 UTC au 21 à 22 UTC
Vent 6 kt de est
Visibilité 10 km ou plus
Nuages fragmentés à une hauteur de 4500 ft
Evoluant progressivement
du 21 à 20 UTC au 21 à 22 UTC
Visibilité: 4000 m
Nuages épars à une hauteur de 4500 ft
brume

TAF: EHGR 210930Z 2110/2122 08006KT 9999 BKN045 BECMG 2120/2122 4000 BR SCT045

Observations et prévisions météorologiques de plus de 4000 aéroports (messages METAR et TAF).

Les stations disponibles sont représentées par des disques jaunes et rouges sur la carte.

Passer la souris dessus pour voir le nom de la station.

Cliquer dessus pour voir les observations et prévisions météorologiques.

Pour changer de carte: cliquez sur les boutons verts avec une croix noire pour zoomer, sur le bouton vert avec un tiret pour effectuer un zoom arrière, ou sur les flèches vertes pour les cartes adjacentes.


METAR-TAF: